Time;durP1;ratioP1;P1;durP2;ratioP2;P2;SDS_P1;SDS_P2;PMS_P1;PMS_P2;Temp;Humidity;BMP_temperature;BMP_pressure;BME280_temperature;BME280_humidity;BME280_pressure;Samples;Min_cycle;Max_cycle;Signal;HPM_P1;HPM_P2
2023/12/26 00:01:57;;;;;;;3.87;2.07;;;;;;;;;;5028756;28;20211;-72
2023/12/26 00:04:23;;;;;;;2.60;1.40;;;;;;;;;;5006388;28;20166;-72
2023/12/26 00:06:48;;;;;;;3.67;1.80;;;;;;;;;;5024802;28;20454;-72
2023/12/26 00:09:13;;;;;;;1.60;1.50;;;;;;;;;;5026798;28;20183;-72
2023/12/26 00:11:42;;;;;;;3.33;1.67;;;;;;;;;;5024619;28;20184;-72
2023/12/26 00:14:07;;;;;;;1.97;1.73;;;;;;;;;;5023699;28;20184;-72
2023/12/26 00:16:33;;;;;;;2.93;1.50;;;;;;;;;;5036085;28;20174;-72
2023/12/26 00:18:58;;;;;;;3.73;1.60;;;;;;;;;;5012912;28;20297;-72
2023/12/26 00:21:23;;;;;;;1.43;1.20;;;;;;;;;;5035294;28;20312;-72
2023/12/26 00:23:48;;;;;;;1.77;1.40;;;;;;;;;;5004587;28;20187;-72
2023/12/26 00:26:13;;;;;;;3.20;1.50;;;;;;;;;;5001060;28;20203;-72
2023/12/26 00:28:39;;;;;;;2.60;1.50;;;;;;;;;;5018970;28;20287;-72
2023/12/26 00:31:04;;;;;;;1.47;1.37;;;;;;;;;;5031111;28;20197;-72
2023/12/26 00:33:29;;;;;;;2.33;1.50;;;;;;;;;;5026966;28;20193;-73
2023/12/26 00:35:56;;;;;;;1.50;1.40;;;;;;;;;;5028534;28;20211;-72
2023/12/26 00:38:22;;;;;;;3.07;1.40;;;;;;;;;;5011464;28;20197;-72
2023/12/26 00:40:47;;;;;;;1.80;1.57;;;;;;;;;;5024009;28;20265;-72
2023/12/26 00:43:12;;;;;;;2.73;1.50;;;;;;;;;;5010001;28;20173;-72
2023/12/26 00:45:37;;;;;;;1.60;1.50;;;;;;;;;;5035634;28;20184;-72
2023/12/26 00:48:03;;;;;;;3.33;1.90;;;;;;;;;;5007772;28;20172;-72
2023/12/26 00:50:28;;;;;;;1.40;1.30;;;;;;;;;;5025597;28;20184;-72
2023/12/26 00:52:53;;;;;;;2.10;1.97;;;;;;;;;;5010163;28;20174;-72
2023/12/26 00:55:19;;;;;;;1.70;1.60;;;;;;;;;;5024435;28;20183;-72
2023/12/26 00:57:44;;;;;;;2.40;1.73;;;;;;;;;;5032009;28;20166;-72
2023/12/26 01:00:09;;;;;;;2.03;1.73;;;;;;;;;;5010454;28;20205;-72
2023/12/26 01:02:35;;;;;;;2.80;1.70;;;;;;;;;;5010039;28;20177;-72
2023/12/26 01:05:00;;;;;;;2.33;1.80;;;;;;;;;;5023438;28;20167;-72
2023/12/26 01:07:25;;;;;;;2.40;1.60;;;;;;;;;;5023448;28;20264;-72
2023/12/26 01:09:51;;;;;;;1.63;1.43;;;;;;;;;;5010328;28;20184;-72
2023/12/26 01:12:16;;;;;;;2.30;1.87;;;;;;;;;;5017709;28;20178;-72
2023/12/26 01:14:41;;;;;;;3.63;1.90;;;;;;;;;;5028359;28;20173;-72
2023/12/26 01:17:06;;;;;;;2.33;1.70;;;;;;;;;;5026943;28;20180;-72
2023/12/26 01:19:31;;;;;;;3.63;2.00;;;;;;;;;;5008598;28;20236;-73
2023/12/26 01:21:57;;;;;;;4.17;2.03;;;;;;;;;;5007770;28;20245;-73
2023/12/26 01:24:22;;;;;;;3.03;2.00;;;;;;;;;;5011885;28;20177;-73
2023/12/26 01:26:47;;;;;;;5.37;1.70;;;;;;;;;;5005442;28;20205;-72
2023/12/26 01:29:13;;;;;;;2.50;1.73;;;;;;;;;;5027666;28;20212;-72
2023/12/26 01:31:38;;;;;;;2.23;1.87;;;;;;;;;;5010937;28;20189;-73
2023/12/26 01:34:03;;;;;;;3.40;1.80;;;;;;;;;;5012529;28;20257;-72
2023/12/26 01:36:29;;;;;;;3.03;2.07;;;;;;;;;;5007728;28;20178;-73
2023/12/26 01:38:54;;;;;;;2.47;2.00;;;;;;;;;;5027587;28;20253;-73
2023/12/26 01:41:19;;;;;;;2.50;1.80;;;;;;;;;;5010055;28;20189;-72
2023/12/26 01:43:44;;;;;;;3.00;1.90;;;;;;;;;;5028156;28;20165;-73
2023/12/26 01:46:10;;;;;;;2.60;2.10;;;;;;;;;;5030210;28;20292;-72
2023/12/26 01:48:35;;;;;;;3.67;2.10;;;;;;;;;;5012195;28;20181;-73
2023/12/26 01:51:01;;;;;;;2.43;2.17;;;;;;;;;;5032506;28;20172;-73
2023/12/26 01:53:26;;;;;;;3.53;2.10;;;;;;;;;;5039825;28;20184;-72
2023/12/26 01:55:52;;;;;;;3.00;1.93;;;;;;;;;;5006387;28;21011;-72
2023/12/26 01:58:17;;;;;;;3.20;1.90;;;;;;;;;;5031642;28;20190;-72
2023/12/26 02:00:42;;;;;;;2.80;1.87;;;;;;;;;;5014507;28;20212;-73
2023/12/26 02:03:07;;;;;;;1.87;1.77;;;;;;;;;;5016786;28;20176;-73
2023/12/26 02:05:33;;;;;;;1.97;1.80;;;;;;;;;;5013619;28;20272;-73
2023/12/26 02:07:58;;;;;;;2.73;2.20;;;;;;;;;;5023982;28;20264;-72
2023/12/26 02:10:24;;;;;;;2.93;1.80;;;;;;;;;;5016091;28;20201;-73
2023/12/26 02:12:49;;;;;;;4.07;2.10;;;;;;;;;;5034993;28;20181;-73
2023/12/26 02:15:14;;;;;;;3.33;2.00;;;;;;;;;;5033299;28;20178;-73
2023/12/26 02:17:40;;;;;;;3.30;2.10;;;;;;;;;;5026146;28;20187;-72
2023/12/26 02:20:07;;;;;;;2.87;2.37;;;;;;;;;;5013945;28;20197;-73
2023/12/26 02:22:32;;;;;;;4.93;2.43;;;;;;;;;;5031234;28;20188;-72
2023/12/26 02:24:58;;;;;;;2.83;2.03;;;;;;;;;;5030535;28;20283;-73
2023/12/26 02:27:24;;;;;;;3.47;2.37;;;;;;;;;;5013330;28;20186;-73
2023/12/26 02:29:51;;;;;;;5.07;2.20;;;;;;;;;;5008842;28;20182;-73
2023/12/26 02:32:17;;;;;;;2.50;2.07;;;;;;;;;;5033748;28;20174;-73
2023/12/26 02:34:43;;;;;;;5.20;2.27;;;;;;;;;;5029018;28;20298;-73
2023/12/26 02:37:08;;;;;;;2.73;2.23;;;;;;;;;;5008176;28;20239;-73
2023/12/26 02:39:34;;;;;;;4.40;2.63;;;;;;;;;;5031625;28;20197;-73
2023/12/26 02:41:59;;;;;;;4.40;2.47;;;;;;;;;;5006658;28;20189;-74
2023/12/26 02:44:24;;;;;;;5.23;2.60;;;;;;;;;;5031791;28;20174;-73
2023/12/26 02:46:50;;;;;;;4.17;2.33;;;;;;;;;;5024701;28;20204;-73
2023/12/26 02:49:15;;;;;;;3.47;2.27;;;;;;;;;;5028430;28;20176;-73
2023/12/26 02:51:40;;;;;;;3.97;2.30;;;;;;;;;;5027587;28;20168;-73
2023/12/26 02:54:05;;;;;;;4.07;2.40;;;;;;;;;;5026310;28;20265;-73
2023/12/26 02:56:30;;;;;;;3.57;2.43;;;;;;;;;;5023810;28;20174;-73
2023/12/26 02:58:56;;;;;;;5.47;2.57;;;;;;;;;;5002831;28;20221;-73
2023/12/26 03:01:21;;;;;;;4.00;2.60;;;;;;;;;;5012422;28;20192;-73
2023/12/26 03:03:46;;;;;;;3.53;2.93;;;;;;;;;;5012592;28;20203;-73
2023/12/26 03:06:11;;;;;;;4.37;2.60;;;;;;;;;;5011768;28;20171;-73
2023/12/26 03:08:36;;;;;;;4.73;2.90;;;;;;;;;;5027841;28;20211;-73
2023/12/26 03:11:02;;;;;;;6.20;2.47;;;;;;;;;;5023757;28;20182;-73
2023/12/26 03:13:27;;;;;;;6.93;2.40;;;;;;;;;;5017097;28;20469;-73
2023/12/26 03:15:52;;;;;;;3.00;2.70;;;;;;;;;;5025469;28;20248;-73
2023/12/26 03:18:17;;;;;;;4.03;2.93;;;;;;;;;;5013391;28;20178;-73
2023/12/26 03:20:43;;;;;;;6.60;2.47;;;;;;;;;;5025551;28;20261;-73
2023/12/26 03:23:09;;;;;;;4.83;3.10;;;;;;;;;;5027528;28;20236;-72
2023/12/26 03:25:34;;;;;;;5.20;2.13;;;;;;;;;;5003163;28;20313;-73
2023/12/26 03:27:59;;;;;;;8.60;2.80;;;;;;;;;;5026297;28;20515;-72
2023/12/26 03:30:24;;;;;;;4.87;2.73;;;;;;;;;;5019378;28;20194;-73
2023/12/26 03:32:49;;;;;;;6.37;2.90;;;;;;;;;;5021902;28;20190;-72
2023/12/26 03:35:15;;;;;;;7.67;2.80;;;;;;;;;;5012692;28;20181;-73
2023/12/26 03:37:40;;;;;;;3.47;2.70;;;;;;;;;;5011286;28;20185;-73
2023/12/26 03:40:06;;;;;;;3.30;2.27;;;;;;;;;;5003902;28;20198;-73
2023/12/26 03:42:31;;;;;;;6.33;2.80;;;;;;;;;;5012761;28;20174;-73
2023/12/26 03:44:57;;;;;;;8.17;3.30;;;;;;;;;;5011107;28;20173;-73
2023/12/26 03:47:22;;;;;;;4.97;2.90;;;;;;;;;;5021101;28;20233;-73
2023/12/26 03:49:47;;;;;;;6.67;3.27;;;;;;;;;;4998877;28;20230;-73
2023/12/26 03:52:12;;;;;;;5.23;2.50;;;;;;;;;;5003212;28;20182;-73
2023/12/26 03:54:37;;;;;;;5.37;3.00;;;;;;;;;;5029144;28;20182;-73
2023/12/26 03:57:03;;;;;;;8.10;3.17;;;;;;;;;;5031649;28;20182;-73
2023/12/26 03:59:28;;;;;;;7.53;3.10;;;;;;;;;;5012485;28;20197;-72
2023/12/26 04:01:53;;;;;;;6.87;3.27;;;;;;;;;;5028319;28;21908;-73
2023/12/26 04:04:19;;;;;;;5.27;2.87;;;;;;;;;;5013848;28;20194;-73
2023/12/26 04:06:45;;;;;;;8.13;3.50;;;;;;;;;;5028012;28;20170;-72
2023/12/26 04:09:10;;;;;;;6.10;3.03;;;;;;;;;;5025240;28;20186;-73
2023/12/26 04:11:35;;;;;;;6.13;3.67;;;;;;;;;;5012909;28;20330;-73
2023/12/26 04:14:00;;;;;;;6.60;2.67;;;;;;;;;;5030033;28;20255;-73
2023/12/26 04:16:26;;;;;;;8.53;2.87;;;;;;;;;;5009019;28;20175;-73
2023/12/26 04:18:51;;;;;;;5.47;2.83;;;;;;;;;;5010551;28;20215;-73
2023/12/26 04:21:16;;;;;;;9.17;3.27;;;;;;;;;;5027912;28;20219;-73
2023/12/26 04:23:41;;;;;;;6.00;3.13;;;;;;;;;;5026049;28;20229;-73
2023/12/26 04:26:07;;;;;;;6.53;3.00;;;;;;;;;;5028772;28;20174;-73
2023/12/26 04:28:32;;;;;;;5.27;2.50;;;;;;;;;;5029514;28;20241;-73
2023/12/26 04:30:57;;;;;;;5.10;2.40;;;;;;;;;;5010297;28;20193;-73
2023/12/26 04:33:25;;;;;;;5.97;3.57;;;;;;;;;;5013337;28;20272;-72
2023/12/26 04:35:50;;;;;;;7.43;3.07;;;;;;;;;;5003453;28;20186;-73
2023/12/26 04:38:15;;;;;;;3.20;2.50;;;;;;;;;;5011813;28;20265;-72
2023/12/26 04:40:40;;;;;;;6.73;3.30;;;;;;;;;;5005993;28;20197;-73
2023/12/26 04:43:08;;;;;;;6.30;2.53;;;;;;;;;;5027013;28;20179;-73
2023/12/26 04:45:35;;;;;;;4.67;2.67;;;;;;;;;;5029203;28;20184;-73
2023/12/26 04:48:04;;;;;;;3.60;2.77;;;;;;;;;;5015939;28;20209;-73
2023/12/26 04:50:30;;;;;;;5.17;2.87;;;;;;;;;;5005111;28;20190;-73
2023/12/26 04:52:55;;;;;;;7.97;2.90;;;;;;;;;;5023794;28;20178;-73
2023/12/26 04:55:21;;;;;;;6.63;2.97;;;;;;;;;;5011116;28;20177;-72
2023/12/26 04:57:46;;;;;;;10.43;3.43;;;;;;;;;;5013098;28;20180;-73
2023/12/26 05:00:11;;;;;;;12.90;3.40;;;;;;;;;;5011063;28;20256;-73
2023/12/26 05:02:37;;;;;;;4.93;2.87;;;;;;;;;;5012467;28;20179;-73
2023/12/26 05:05:03;;;;;;;2.90;2.30;;;;;;;;;;5028499;28;20190;-73
2023/12/26 05:07:28;;;;;;;5.60;3.20;;;;;;;;;;5008629;28;20177;-73
2023/12/26 05:09:53;;;;;;;5.40;2.93;;;;;;;;;;5021488;28;20177;-73
2023/12/26 05:12:18;;;;;;;6.40;3.03;;;;;;;;;;5011198;28;20178;-73
2023/12/26 05:14:43;;;;;;;6.87;3.33;;;;;;;;;;5007118;28;20232;-72
2023/12/26 05:17:09;;;;;;;5.57;3.03;;;;;;;;;;5007508;28;20186;-73
2023/12/26 05:19:34;;;;;;;7.93;3.03;;;;;;;;;;5020886;28;20204;-72
2023/12/26 05:21:59;;;;;;;7.97;3.03;;;;;;;;;;5031802;28;20230;-73
2023/12/26 05:24:24;;;;;;;4.70;3.07;;;;;;;;;;5014070;28;20190;-73
2023/12/26 05:26:50;;;;;;;5.47;2.97;;;;;;;;;;5013819;28;20187;-73
2023/12/26 05:29:15;;;;;;;6.93;3.43;;;;;;;;;;5007475;28;20186;-73
2023/12/26 05:31:40;;;;;;;8.70;3.30;;;;;;;;;;5025564;28;20186;-73
2023/12/26 05:34:07;;;;;;;4.63;2.93;;;;;;;;;;5021281;28;20175;-73
2023/12/26 05:36:32;;;;;;;5.13;2.40;;;;;;;;;;5012626;28;20187;-72
2023/12/26 05:38:58;;;;;;;5.97;3.03;;;;;;;;;;5027558;28;20222;-73
2023/12/26 05:41:25;;;;;;;3.43;2.27;;;;;;;;;;5014649;28;20181;-73
2023/12/26 05:43:50;;;;;;;8.17;3.30;;;;;;;;;;5031610;28;20267;-73
2023/12/26 05:46:17;;;;;;;4.83;2.53;;;;;;;;;;5004851;28;20185;-73
2023/12/26 05:48:42;;;;;;;7.23;2.83;;;;;;;;;;5028326;28;20193;-73
2023/12/26 05:51:07;;;;;;;4.67;2.37;;;;;;;;;;5027974;28;20174;-73
2023/12/26 05:53:33;;;;;;;3.57;2.63;;;;;;;;;;5015864;28;20269;-73
2023/12/26 05:55:58;;;;;;;6.27;2.73;;;;;;;;;;5014264;28;20283;-73
2023/12/26 05:58:24;;;;;;;5.83;2.53;;;;;;;;;;5005636;28;20222;-73
2023/12/26 06:00:49;;;;;;;2.80;2.50;;;;;;;;;;5012588;28;20184;-73
2023/12/26 06:03:14;;;;;;;4.37;2.67;;;;;;;;;;5014482;28;20178;-73
2023/12/26 06:05:39;;;;;;;8.87;2.70;;;;;;;;;;5012991;28;20198;-73
2023/12/26 06:08:05;;;;;;;5.80;3.17;;;;;;;;;;5013040;28;20213;-73
2023/12/26 06:10:30;;;;;;;5.77;3.07;;;;;;;;;;5029590;28;20177;-73
2023/12/26 06:12:55;;;;;;;4.93;2.53;;;;;;;;;;5013059;28;20245;-73
2023/12/26 06:15:20;;;;;;;3.80;2.50;;;;;;;;;;5014153;28;20189;-73
2023/12/26 06:17:45;;;;;;;4.93;2.33;;;;;;;;;;5030777;28;20210;-73
2023/12/26 06:20:11;;;;;;;6.27;3.87;;;;;;;;;;5011239;28;20208;-73
2023/12/26 06:22:36;;;;;;;9.23;3.07;;;;;;;;;;5015892;28;20247;-73
2023/12/26 06:25:02;;;;;;;5.97;2.87;;;;;;;;;;5013976;28;20513;-73
2023/12/26 06:27:27;;;;;;;4.37;2.63;;;;;;;;;;5029896;28;20259;-73
2023/12/26 06:29:52;;;;;;;6.47;2.90;;;;;;;;;;5027255;28;20209;-73
2023/12/26 06:32:17;;;;;;;7.00;2.67;;;;;;;;;;5030934;28;20184;-73
2023/12/26 06:34:42;;;;;;;5.13;2.80;;;;;;;;;;5022398;28;20179;-74
2023/12/26 06:37:08;;;;;;;6.50;2.93;;;;;;;;;;5003785;28;20182;-73
2023/12/26 06:39:33;;;;;;;3.67;2.40;;;;;;;;;;5004870;28;20274;-72
2023/12/26 06:41:58;;;;;;;4.97;2.50;;;;;;;;;;5027580;28;20213;-73
2023/12/26 06:44:23;;;;;;;6.23;2.43;;;;;;;;;;5030663;28;20171;-73
2023/12/26 06:46:49;;;;;;;5.60;3.03;;;;;;;;;;5030732;28;20185;-73
2023/12/26 06:49:17;;;;;;;10.27;3.63;;;;;;;;;;5019290;28;20193;-73
2023/12/26 06:51:42;;;;;;;8.93;3.30;;;;;;;;;;5023384;28;20185;-73
2023/12/26 06:54:08;;;;;;;9.67;3.17;;;;;;;;;;5011581;28;20182;-73
2023/12/26 06:56:33;;;;;;;8.03;2.80;;;;;;;;;;5012742;28;20182;-73
2023/12/26 06:58:58;;;;;;;5.23;2.77;;;;;;;;;;5010645;28;20205;-73
2023/12/26 07:01:24;;;;;;;6.13;3.03;;;;;;;;;;5028345;28;20213;-73
2023/12/26 07:03:49;;;;;;;6.67;3.47;;;;;;;;;;5021990;28;20230;-73
2023/12/26 07:06:14;;;;;;;4.43;3.00;;;;;;;;;;5007103;28;20264;-73
2023/12/26 07:08:39;;;;;;;9.50;4.20;;;;;;;;;;5008682;28;20265;-72
2023/12/26 07:11:04;;;;;;;5.97;3.70;;;;;;;;;;5011933;28;20177;-72
2023/12/26 07:13:30;;;;;;;13.50;3.40;;;;;;;;;;5026333;28;20501;-73
2023/12/26 07:15:55;;;;;;;6.80;3.20;;;;;;;;;;5027926;28;20298;-73
2023/12/26 07:18:20;;;;;;;5.30;2.70;;;;;;;;;;5017187;28;20505;-73
2023/12/26 07:20:46;;;;;;;5.03;2.70;;;;;;;;;;5016734;28;20218;-73
2023/12/26 07:23:11;;;;;;;8.07;3.17;;;;;;;;;;5018363;28;20184;-73
2023/12/26 07:25:37;;;;;;;7.40;3.23;;;;;;;;;;5024300;28;20202;-73
2023/12/26 07:28:03;;;;;;;13.70;5.43;;;;;;;;;;5014914;28;20189;-73
2023/12/26 07:30:28;;;;;;;8.10;4.73;;;;;;;;;;5028763;28;20220;-72
2023/12/26 07:32:53;;;;;;;5.67;3.20;;;;;;;;;;5015111;28;20194;-73
2023/12/26 07:35:18;;;;;;;6.87;2.90;;;;;;;;;;5025086;28;20178;-72
2023/12/26 07:37:44;;;;;;;6.67;3.40;;;;;;;;;;5014179;28;20201;-72
2023/12/26 07:40:09;;;;;;;5.87;3.23;;;;;;;;;;5026718;28;20202;-72
2023/12/26 07:42:34;;;;;;;5.90;2.50;;;;;;;;;;5030793;28;20181;-72
2023/12/26 07:45:00;;;;;;;6.90;3.57;;;;;;;;;;5027411;28;20182;-73
2023/12/26 07:47:25;;;;;;;5.83;2.93;;;;;;;;;;5019789;28;20188;-73
2023/12/26 07:49:51;;;;;;;8.13;3.00;;;;;;;;;;5012875;28;20188;-73
2023/12/26 07:52:16;;;;;;;5.40;3.13;;;;;;;;;;5014626;28;20182;-72
2023/12/26 07:54:41;;;;;;;4.70;2.50;;;;;;;;;;5026259;28;20167;-73
2023/12/26 07:57:07;;;;;;;6.03;3.07;;;;;;;;;;5029520;28;20185;-73
2023/12/26 07:59:32;;;;;;;7.77;3.30;;;;;;;;;;5032404;28;20215;-72
2023/12/26 08:01:57;;;;;;;6.30;3.00;;;;;;;;;;5015693;28;20208;-73
2023/12/26 08:04:22;;;;;;;7.30;3.37;;;;;;;;;;5024428;28;20206;-73
2023/12/26 08:06:48;;;;;;;8.87;5.13;;;;;;;;;;5035437;28;20184;-72
2023/12/26 08:09:13;;;;;;;5.53;3.27;;;;;;;;;;5029306;28;20178;-73
2023/12/26 08:11:38;;;;;;;5.10;2.60;;;;;;;;;;5033590;28;20191;-73
2023/12/26 08:14:03;;;;;;;6.60;2.80;;;;;;;;;;5000143;28;20189;-73
2023/12/26 08:16:29;;;;;;;8.33;2.67;;;;;;;;;;5034650;28;20234;-73
2023/12/26 08:18:56;;;;;;;4.77;3.23;;;;;;;;;;5033276;28;20310;-72
2023/12/26 08:21:21;;;;;;;10.47;3.60;;;;;;;;;;5015167;28;20229;-72
2023/12/26 08:23:47;;;;;;;6.87;3.20;;;;;;;;;;5000618;28;20177;-73
2023/12/26 08:26:12;;;;;;;5.30;3.17;;;;;;;;;;5019162;28;20192;-73
2023/12/26 08:28:37;;;;;;;8.93;3.03;;;;;;;;;;5009229;28;20206;-73
2023/12/26 08:31:02;;;;;;;7.07;2.70;;;;;;;;;;5007569;28;20220;-73
2023/12/26 08:33:29;;;;;;;4.60;3.20;;;;;;;;;;5002876;28;20272;-73
2023/12/26 08:35:55;;;;;;;8.33;2.80;;;;;;;;;;5004177;28;20198;-73
2023/12/26 08:38:20;;;;;;;4.63;2.43;;;;;;;;;;5004958;28;20185;-73
2023/12/26 08:40:45;;;;;;;6.80;2.87;;;;;;;;;;5005677;28;20248;-73
2023/12/26 08:43:10;;;;;;;5.07;2.97;;;;;;;;;;5003726;28;20210;-73
2023/12/26 08:45:36;;;;;;;5.57;2.90;;;;;;;;;;5011014;28;20182;-73
2023/12/26 08:48:02;;;;;;;6.57;2.57;;;;;;;;;;5011481;28;20207;-73
2023/12/26 08:50:27;;;;;;;6.90;3.17;;;;;;;;;;5021427;28;20259;-73
2023/12/26 08:52:52;;;;;;;6.87;3.23;;;;;;;;;;5007297;28;20273;-73
2023/12/26 08:55:17;;;;;;;3.17;2.47;;;;;;;;;;4997205;28;20199;-73
2023/12/26 08:57:42;;;;;;;5.60;2.93;;;;;;;;;;5006990;28;20172;-72
2023/12/26 09:00:09;;;;;;;7.07;2.73;;;;;;;;;;5023605;28;20217;-73
2023/12/26 09:02:35;;;;;;;3.50;2.90;;;;;;;;;;5010646;28;20189;-73
2023/12/26 09:05:02;;;;;;;3.80;2.50;;;;;;;;;;5007729;28;20180;-72
2023/12/26 09:07:27;;;;;;;4.30;2.97;;;;;;;;;;5005493;28;20190;-73
2023/12/26 09:09:52;;;;;;;5.00;2.90;;;;;;;;;;5004034;28;20209;-73
2023/12/26 09:12:18;;;;;;;3.67;2.50;;;;;;;;;;5008845;28;20185;-73
2023/12/26 09:14:43;;;;;;;2.80;2.43;;;;;;;;;;5007757;28;20178;-73
2023/12/26 09:17:08;;;;;;;3.37;2.40;;;;;;;;;;5004760;28;20222;-72
2023/12/26 09:19:34;;;;;;;4.10;2.70;;;;;;;;;;5000269;28;20217;-73
2023/12/26 09:21:59;;;;;;;5.13;2.90;;;;;;;;;;5019169;28;20309;-73
2023/12/26 09:24:24;;;;;;;4.43;2.53;;;;;;;;;;5010436;28;20179;-72
2023/12/26 09:26:49;;;;;;;3.33;2.27;;;;;;;;;;5009622;28;20191;-73
2023/12/26 09:29:14;;;;;;;2.67;2.10;;;;;;;;;;5019675;28;20259;-73
2023/12/26 09:31:40;;;;;;;3.70;2.37;;;;;;;;;;5026550;28;20181;-73
2023/12/26 09:34:05;;;;;;;3.77;2.10;;;;;;;;;;5011554;28;20189;-73
2023/12/26 09:36:30;;;;;;;3.37;2.10;;;;;;;;;;5010643;28;20198;-73
2023/12/26 09:38:56;;;;;;;6.33;2.40;;;;;;;;;;5029149;28;20210;-73
2023/12/26 09:41:23;;;;;;;3.73;2.13;;;;;;;;;;5009599;28;20226;-73
2023/12/26 09:43:48;;;;;;;5.67;2.30;;;;;;;;;;5012265;28;20180;-73
2023/12/26 09:46:13;;;;;;;3.27;1.70;;;;;;;;;;5009040;28;20180;-72
2023/12/26 09:48:39;;;;;;;2.77;2.30;;;;;;;;;;5009457;28;20181;-73
2023/12/26 09:51:05;;;;;;;3.47;2.30;;;;;;;;;;5005538;28;20198;-73
2023/12/26 09:53:33;;;;;;;3.53;2.57;;;;;;;;;;5029758;28;20184;-72
2023/12/26 09:55:58;;;;;;;3.40;2.20;;;;;;;;;;5027887;28;20175;-72
2023/12/26 09:58:23;;;;;;;2.77;2.00;;;;;;;;;;5010150;28;20226;-72
2023/12/26 10:00:50;;;;;;;3.20;2.13;;;;;;;;;;5025963;28;20209;-73
2023/12/26 10:03:15;;;;;;;2.23;1.70;;;;;;;;;;5025039;28;20176;-73
2023/12/26 10:05:41;;;;;;;3.60;1.57;;;;;;;;;;5008867;28;20209;-73
2023/12/26 10:08:06;;;;;;;4.07;2.30;;;;;;;;;;5029254;28;20179;-73
2023/12/26 10:10:32;;;;;;;3.50;1.90;;;;;;;;;;5042224;28;20423;-72
2023/12/26 10:12:57;;;;;;;3.10;1.67;;;;;;;;;;5010900;28;20268;-73
2023/12/26 10:15:22;;;;;;;2.17;1.40;;;;;;;;;;5017309;28;20281;-73
2023/12/26 10:17:49;;;;;;;2.67;1.60;;;;;;;;;;5026425;28;20238;-72
2023/12/26 10:20:15;;;;;;;1.90;1.70;;;;;;;;;;5029838;28;20297;-72
2023/12/26 10:22:40;;;;;;;2.17;1.40;;;;;;;;;;5014020;28;20244;-72
2023/12/26 10:25:06;;;;;;;1.97;1.67;;;;;;;;;;5009941;28;20198;-72
2023/12/26 10:27:31;;;;;;;3.53;2.00;;;;;;;;;;5008011;28;20170;-73
2023/12/26 10:29:56;;;;;;;1.77;1.63;;;;;;;;;;5012905;28;20183;-73
2023/12/26 10:32:25;;;;;;;4.67;1.70;;;;;;;;;;5016242;28;20204;-72
2023/12/26 10:34:50;;;;;;;3.17;1.73;;;;;;;;;;5008251;28;20186;-73
2023/12/26 10:37:19;;;;;;;1.90;1.80;;;;;;;;;;5024639;28;20182;-72
2023/12/26 10:39:44;;;;;;;1.63;1.53;;;;;;;;;;5024066;28;20209;-73
2023/12/26 10:42:11;;;;;;;2.40;1.70;;;;;;;;;;5028650;28;20184;-73
2023/12/26 10:44:55;;;;;;;6.40;3.07;;;;;;;;;;5027216;28;20177;-73
2023/12/26 10:47:21;;;;;;;4.37;1.63;;;;;;;;;;5027333;28;20220;-72
2023/12/26 10:49:47;;;;;;;3.17;1.93;;;;;;;;;;5012935;28;20180;-73
2023/12/26 10:52:13;;;;;;;5.50;3.57;;;;;;;;;;5010615;28;20706;-73
2023/12/26 10:54:40;;;;;;;4.43;3.17;;;;;;;;;;5006174;28;20179;-73
2023/12/26 10:57:09;;;;;;;3.03;1.80;;;;;;;;;;5014390;28;20185;-73
2023/12/26 13:53:18;;;;;;;2.33;2.17;;;;;;;;;;4991419;28;20175;-72
2023/12/26 13:55:43;;;;;;;2.00;1.57;;;;;;;;;;4991591;28;20176;-72
2023/12/26 13:58:08;;;;;;;1.40;1.30;;;;;;;;;;4987911;28;20195;-73
2023/12/26 14:00:34;;;;;;;1.57;1.47;;;;;;;;;;4991210;28;20199;-72
2023/12/26 14:02:59;;;;;;;2.60;2.10;;;;;;;;;;5004946;28;20228;-73
2023/12/26 14:05:24;;;;;;;2.73;2.43;;;;;;;;;;4989367;28;20177;-72
2023/12/26 14:07:55;;;;;;;1.57;1.47;;;;;;;;;;4986407;28;20196;-72
2023/12/26 14:10:20;;;;;;;2.43;1.13;;;;;;;;;;4992063;28;20190;-72
2023/12/26 14:12:45;;;;;;;1.20;1.10;;;;;;;;;;4991817;28;20177;-72
2023/12/26 14:15:10;;;;;;;1.50;1.40;;;;;;;;;;4991787;28;20181;-73
2023/12/26 14:17:37;;;;;;;1.23;1.10;;;;;;;;;;5004510;28;20190;-72
2023/12/26 14:20:05;;;;;;;0.90;0.90;;;;;;;;;;4987224;28;20217;-74
2023/12/26 14:22:30;;;;;;;1.17;1.00;;;;;;;;;;5009941;28;20277;-72
2023/12/26 14:24:55;;;;;;;1.17;1.00;;;;;;;;;;5024684;28;20260;-72
2023/12/26 14:27:21;;;;;;;0.97;0.70;;;;;;;;;;5030039;28;20174;-72
2023/12/26 14:29:46;;;;;;;1.20;1.10;;;;;;;;;;5011832;28;20175;-73
2023/12/26 14:32:11;;;;;;;0.90;0.70;;;;;;;;;;5031598;28;20252;-72
2023/12/26 14:34:36;;;;;;;1.93;1.10;;;;;;;;;;5031671;28;20177;-72
2023/12/26 14:37:02;;;;;;;2.27;1.10;;;;;;;;;;5030147;28;20186;-73
2023/12/26 14:39:27;;;;;;;0.73;0.73;;;;;;;;;;5028828;28;20278;-72
2023/12/26 14:41:52;;;;;;;1.10;1.00;;;;;;;;;;5003775;28;20275;-72
2023/12/26 14:44:17;;;;;;;0.93;0.77;;;;;;;;;;5010271;28;20180;-72
2023/12/26 14:46:43;;;;;;;1.20;1.10;;;;;;;;;;5010878;28;20202;-72
2023/12/26 14:49:08;;;;;;;1.10;1.00;;;;;;;;;;5024005;28;20191;-73
2023/12/26 14:51:33;;;;;;;2.27;1.30;;;;;;;;;;5027923;28;20205;-73
2023/12/26 14:53:58;;;;;;;1.40;1.30;;;;;;;;;;5030479;28;20186;-72
2023/12/26 14:56:25;;;;;;;0.90;0.80;;;;;;;;;;5030319;28;20182;-73
2023/12/26 14:58:50;;;;;;;2.53;1.20;;;;;;;;;;5015657;28;20178;-72
2023/12/26 15:01:16;;;;;;;1.40;1.30;;;;;;;;;;5028859;28;20179;-72
2023/12/26 15:03:41;;;;;;;1.00;0.90;;;;;;;;;;5012374;28;20200;-73
2023/12/26 15:06:13;;;;;;;1.57;1.13;;;;;;;;;;5029049;28;20177;-73
2023/12/26 15:08:38;;;;;;;1.20;1.10;;;;;;;;;;5012301;28;20194;-72
2023/12/26 15:11:03;;;;;;;1.27;1.17;;;;;;;;;;5011780;28;20208;-72
2023/12/26 15:13:28;;;;;;;2.07;1.80;;;;;;;;;;5029808;28;20276;-72
2023/12/26 15:15:53;;;;;;;0.80;0.80;;;;;;;;;;5009867;28;20183;-72
2023/12/26 15:18:19;;;;;;;1.57;1.47;;;;;;;;;;5012032;28;20274;-72
2023/12/26 15:20:44;;;;;;;1.60;1.10;;;;;;;;;;5026581;28;20279;-72
2023/12/26 15:23:09;;;;;;;0.80;0.80;;;;;;;;;;5003645;28;20338;-72
2023/12/26 15:25:34;;;;;;;1.83;1.27;;;;;;;;;;5005262;28;20180;-73
2023/12/26 15:28:00;;;;;;;0.93;0.87;;;;;;;;;;5005130;28;20186;-73
2023/12/26 15:30:25;;;;;;;1.00;1.00;;;;;;;;;;5011202;28;20221;-72
2023/12/26 15:32:51;;;;;;;2.53;1.73;;;;;;;;;;5009937;28;20201;-72
2023/12/26 15:35:17;;;;;;;1.53;1.07;;;;;;;;;;5018847;28;20198;-73
2023/12/26 15:37:42;;;;;;;2.03;1.30;;;;;;;;;;5004349;28;20206;-72
2023/12/26 15:40:07;;;;;;;1.00;1.00;;;;;;;;;;5013075;28;20190;-72
2023/12/26 15:42:33;;;;;;;1.67;1.20;;;;;;;;;;5011663;28;20236;-73
2023/12/26 15:44:58;;;;;;;1.07;0.97;;;;;;;;;;5012996;28;20175;-72
2023/12/26 15:47:23;;;;;;;5.23;1.77;;;;;;;;;;5008961;28;20190;-72
2023/12/26 15:49:49;;;;;;;1.90;1.40;;;;;;;;;;5025855;28;20191;-73
2023/12/26 15:52:14;;;;;;;1.20;1.13;;;;;;;;;;5012700;28;20185;-72
2023/12/26 15:54:40;;;;;;;1.23;1.13;;;;;;;;;;5013360;28;20269;-73
2023/12/26 15:57:06;;;;;;;2.07;1.30;;;;;;;;;;5011220;28;20210;-72
2023/12/26 15:59:31;;;;;;;2.07;1.40;;;;;;;;;;5008077;28;20234;-73
2023/12/26 16:01:56;;;;;;;1.60;1.50;;;;;;;;;;5005738;28;20217;-73
2023/12/26 16:04:21;;;;;;;1.60;1.50;;;;;;;;;;5009026;28;20190;-72
2023/12/26 16:06:47;;;;;;;4.20;2.70;;;;;;;;;;5006704;28;20169;-72
2023/12/26 16:09:12;;;;;;;2.67;2.33;;;;;;;;;;5034382;28;20186;-73
2023/12/26 16:11:37;;;;;;;6.60;4.20;;;;;;;;;;5005635;28;20260;-72
2023/12/26 16:14:04;;;;;;;10.57;7.13;;;;;;;;;;5024926;28;20185;-73
2023/12/26 16:16:29;;;;;;;4.50;3.97;;;;;;;;;;5010249;28;20174;-73
2023/12/26 16:18:55;;;;;;;2.87;2.60;;;;;;;;;;5005222;28;20205;-72
2023/12/26 16:21:22;;;;;;;3.17;2.00;;;;;;;;;;5028610;28;20232;-72
2023/12/26 16:23:48;;;;;;;2.07;1.87;;;;;;;;;;5010799;28;20201;-73
2023/12/26 16:26:13;;;;;;;1.00;0.90;;;;;;;;;;5022647;28;20171;-72
2023/12/26 16:28:38;;;;;;;1.63;1.53;;;;;;;;;;5023261;28;20183;-72
2023/12/26 16:31:04;;;;;;;1.63;1.53;;;;;;;;;;5022411;28;20178;-72
2023/12/26 16:33:29;;;;;;;2.57;1.80;;;;;;;;;;5007800;28;20326;-73
2023/12/26 16:35:55;;;;;;;2.53;2.33;;;;;;;;;;5011667;28;20346;-72
2023/12/26 16:38:21;;;;;;;1.90;1.70;;;;;;;;;;5001484;28;20239;-72
2023/12/26 16:40:46;;;;;;;2.13;1.93;;;;;;;;;;5022204;28;20195;-73
2023/12/26 16:43:11;;;;;;;3.23;1.87;;;;;;;;;;5023062;28;20249;-73
2023/12/26 16:45:37;;;;;;;3.67;2.00;;;;;;;;;;5027605;28;20175;-72
2023/12/26 16:48:03;;;;;;;2.70;2.17;;;;;;;;;;5010843;28;20194;-73
2023/12/26 16:50:28;;;;;;;3.10;1.97;;;;;;;;;;5012873;28;20193;-73
2023/12/26 16:52:54;;;;;;;6.47;3.70;;;;;;;;;;5027870;28;20182;-72
2023/12/26 16:55:19;;;;;;;2.57;2.27;;;;;;;;;;5027409;28;20202;-73
2023/12/26 16:57:44;;;;;;;2.93;1.83;;;;;;;;;;5009904;28;20190;-73
2023/12/26 17:00:10;;;;;;;3.13;2.63;;;;;;;;;;5009109;28;20230;-72
2023/12/26 17:02:35;;;;;;;3.33;2.40;;;;;;;;;;5012148;28;20177;-72
2023/12/26 17:05:01;;;;;;;2.07;1.80;;;;;;;;;;5031902;28;20203;-73
2023/12/26 17:07:26;;;;;;;2.77;1.50;;;;;;;;;;5027555;28;21133;-72
2023/12/26 17:09:51;;;;;;;4.00;3.00;;;;;;;;;;5028666;28;20185;-73
2023/12/26 17:12:18;;;;;;;11.17;6.27;;;;;;;;;;5026725;28;20192;-73
2023/12/26 17:14:44;;;;;;;6.37;4.30;;;;;;;;;;5025835;28;20243;-72
2023/12/26 17:17:09;;;;;;;2.37;1.97;;;;;;;;;;5011080;28;20179;-73
2023/12/26 17:19:34;;;;;;;4.13;2.77;;;;;;;;;;5008910;28;20206;-73
2023/12/26 17:21:59;;;;;;;7.03;3.97;;;;;;;;;;5023999;28;20304;-72
2023/12/26 17:24:25;;;;;;;2.80;1.83;;;;;;;;;;5004947;28;20183;-72
2023/12/26 17:27:04;;;;;;;1.20;1.20;;;;;;;;;;5027910;28;20193;-72